createdAt,value
2018-02-22T00:02:28.576Z,17.23
2018-02-22T00:05:02.312Z,18.50
2018-02-22T00:07:35.920Z,16.10
2018-02-22T00:10:09.711Z,17.30
2018-02-22T00:12:43.255Z,15.60
2018-02-22T00:15:16.899Z,15.80
2018-02-22T00:17:50.482Z,16.97
2018-02-22T00:20:24.097Z,16.17
2018-02-22T00:22:58.567Z,15.03
2018-02-22T00:25:32.288Z,15.37
2018-02-22T00:28:05.956Z,16.77
2018-02-22T00:30:40.326Z,16.43
2018-02-22T00:33:14.014Z,16.90
2018-02-22T00:35:47.602Z,18.83
2018-02-22T00:38:21.198Z,17.67
2018-02-22T00:40:54.980Z,17.60
2018-02-22T00:43:28.532Z,24.57
2018-02-22T00:46:03.195Z,25.30
2018-02-22T00:48:37.689Z,23.03
2018-02-22T00:51:11.717Z,19.73
2018-02-22T00:53:45.260Z,21.30
2018-02-22T00:56:19.057Z,20.47
2018-02-22T00:58:53.470Z,19.20
2018-02-22T01:01:27.321Z,17.63
2018-02-22T01:04:01.732Z,18.07
2018-02-22T01:06:35.715Z,15.70
2018-02-22T01:09:10.296Z,15.43
2018-02-22T01:11:44.091Z,15.37
2018-02-22T01:14:18.431Z,15.70
2018-02-22T01:16:53.071Z,18.00
2018-02-22T01:19:26.984Z,18.27
2018-02-22T01:22:00.620Z,16.90
2018-02-22T01:24:34.697Z,16.60
2018-02-22T01:27:09.131Z,17.17
2018-02-22T01:29:43.538Z,17.67
2018-02-22T01:32:18.395Z,16.67
2018-02-22T01:34:52.242Z,15.67
2018-02-22T01:37:25.854Z,15.47
2018-02-22T01:39:59.592Z,18.40
2018-02-22T01:42:33.165Z,18.10
2018-02-22T01:45:06.783Z,16.77
2018-02-22T01:47:40.367Z,17.57
2018-02-22T01:50:14.084Z,16.70
2018-02-22T01:52:48.431Z,15.83
2018-02-22T01:55:22.318Z,16.80
2018-02-22T01:57:55.941Z,17.97
2018-02-22T02:00:29.412Z,16.80
2018-02-22T02:03:03.068Z,16.97
2018-02-22T02:05:36.616Z,18.57
2018-02-22T02:08:10.118Z,16.53
2018-02-22T02:10:43.754Z,15.47
2018-02-22T02:13:17.456Z,16.23
2018-02-22T02:15:51.139Z,16.00
2018-02-22T02:18:25.404Z,16.70
2018-02-22T02:20:59.412Z,17.20
2018-02-22T02:23:33.899Z,16.33
2018-02-22T02:26:08.261Z,17.93
2018-02-22T02:28:42.184Z,16.90
2018-02-22T02:31:15.788Z,16.77
2018-02-22T02:33:49.349Z,16.17
2018-02-22T02:36:22.959Z,16.10
2018-02-22T02:38:56.773Z,17.40
2018-02-22T02:41:31.207Z,17.07
2018-02-22T02:44:05.008Z,16.73
2018-02-22T02:46:39.460Z,15.70
2018-02-22T02:49:14.062Z,15.90
2018-02-22T02:51:48.871Z,15.97
2018-02-22T02:54:23.484Z,18.67
2018-02-22T02:56:57.421Z,15.67
2018-02-22T02:59:31.725Z,18.97
2018-02-22T03:02:05.683Z,16.90
2018-02-22T03:04:39.381Z,17.37
2018-02-22T03:07:12.984Z,17.33
2018-02-22T03:09:47.355Z,16.40
2018-02-22T03:12:22.015Z,18.17
2018-02-22T03:14:56.708Z,16.53
2018-02-22T03:17:33.485Z,17.23
2018-02-22T03:20:07.126Z,16.87
2018-02-22T03:22:40.839Z,16.93
2018-02-22T03:25:14.530Z,14.90
2018-02-22T03:27:48.835Z,16.27
2018-02-22T03:30:22.690Z,15.13
2018-02-22T03:32:56.312Z,16.80
2018-02-22T03:35:30.649Z,17.83
2018-02-22T03:38:04.401Z,18.20
2018-02-22T03:40:37.917Z,18.27
2018-02-22T03:43:11.635Z,18.60
2018-02-22T03:45:45.142Z,17.73
2018-02-22T03:48:18.760Z,16.63
2018-02-22T03:50:52.882Z,16.37
2018-02-22T03:53:27.909Z,17.23
2018-02-22T03:56:02.025Z,16.93
2018-02-22T03:58:35.802Z,16.30
2018-02-22T04:01:09.287Z,16.33
2018-02-22T04:03:43.050Z,13.37
2018-02-22T04:06:16.741Z,16.37
2018-02-22T04:08:51.040Z,17.47
2018-02-22T04:11:25.649Z,16.70
2018-02-22T04:13:59.483Z,18.53
2018-02-22T04:16:33.920Z,15.90
2018-02-22T04:19:07.607Z,17.40
2018-02-22T04:21:41.280Z,15.30
2018-02-22T04:24:14.996Z,17.03
2018-02-22T04:26:48.536Z,17.23
2018-02-22T04:29:23.003Z,17.17
2018-02-22T04:31:56.918Z,15.83
2018-02-22T04:34:30.516Z,15.60
2018-02-22T04:37:04.102Z,17.77
2018-02-22T04:39:37.787Z,16.77
2018-02-22T04:42:11.473Z,17.17
2018-02-22T04:44:45.108Z,20.33
2018-02-22T04:47:18.820Z,16.60
2018-02-22T04:49:52.447Z,18.60
2018-02-22T04:52:26.239Z,16.23
2018-02-22T04:55:00.659Z,17.30
2018-02-22T04:57:35.424Z,17.57
2018-02-22T05:00:09.326Z,17.00
2018-02-22T05:02:42.873Z,18.50
2018-02-22T05:05:17.321Z,19.33
2018-02-22T05:07:51.285Z,17.50
2018-02-22T05:10:24.896Z,17.83
2018-02-22T05:12:59.259Z,17.40
2018-02-22T05:15:33.128Z,18.13
2018-02-22T05:18:06.786Z,17.23
2018-02-22T05:20:40.337Z,18.10
2018-02-22T05:23:13.910Z,17.20
2018-02-22T05:25:47.603Z,19.90
2018-02-22T05:28:21.235Z,18.83
2018-02-22T05:30:54.920Z,19.00
2018-02-22T05:33:29.219Z,20.03
2018-02-22T05:36:04.088Z,18.77
2018-02-22T05:38:37.715Z,17.50
2018-02-22T05:41:11.557Z,18.63
2018-02-22T05:43:45.997Z,19.70
2018-02-22T05:46:19.852Z,18.43
2018-02-22T05:48:53.517Z,19.10
2018-02-22T05:51:27.969Z,18.77
2018-02-22T05:54:01.862Z,17.47
2018-02-22T05:56:35.533Z,17.40
2018-02-22T05:59:09.288Z,18.27
2018-02-22T06:01:43.613Z,19.90
2018-02-22T06:04:17.716Z,19.87
2018-02-22T06:06:52.188Z,20.27
2018-02-22T06:09:25.754Z,18.87
2018-02-22T06:12:00.209Z,20.77
2018-02-22T06:14:34.014Z,17.93
2018-02-22T06:17:07.961Z,21.40
2018-02-22T06:19:41.564Z,19.90
2018-02-22T06:22:15.506Z,17.93
2018-02-22T06:24:49.786Z,20.70
2018-02-22T06:27:23.379Z,20.80
2018-02-22T06:29:57.046Z,21.63
2018-02-22T06:32:30.717Z,21.43
2018-02-22T06:35:04.347Z,20.27
2018-02-22T06:37:38.076Z,22.63
2018-02-22T06:40:12.540Z,20.93
2018-02-22T06:42:46.425Z,21.53
2018-02-22T06:45:19.942Z,26.90
2018-02-22T06:47:53.568Z,21.63
2018-02-22T06:50:28.764Z,19.13
2018-02-22T06:53:03.033Z,20.07
2018-02-22T06:55:37.420Z,23.60
2018-02-22T06:58:12.538Z,23.70
2018-02-22T07:00:46.168Z,25.87
2018-02-22T07:03:19.857Z,26.30
2018-02-22T07:05:54.201Z,24.30
2018-02-22T07:08:28.587Z,23.43
2018-02-22T07:11:02.262Z,25.17
2018-02-22T07:13:35.951Z,25.00
2018-02-22T07:16:10.723Z,24.93
2018-02-22T07:18:44.577Z,21.77
2018-02-22T07:21:18.179Z,19.80
2018-02-22T07:23:52.669Z,20.40
2018-02-22T07:26:26.495Z,20.60
2018-02-22T07:29:00.153Z,20.30
2018-02-22T07:31:34.717Z,21.37
2018-02-22T07:34:09.544Z,23.63
2018-02-22T07:36:43.676Z,17.37
2018-02-22T07:39:17.347Z,18.67
2018-02-22T07:41:51.754Z,19.50
2018-02-22T07:44:26.327Z,18.83
2018-02-22T07:47:01.219Z,20.37
2018-02-22T07:49:35.868Z,19.93
2018-02-22T07:52:09.857Z,18.50
2018-02-22T07:54:43.741Z,18.50
2018-02-22T07:57:18.519Z,19.50
2018-02-22T07:59:52.408Z,20.57
2018-02-22T08:02:27.078Z,20.80
2018-02-22T08:05:00.921Z,20.90
2018-02-22T08:07:34.632Z,17.23
2018-02-22T08:10:09.045Z,24.00
2018-02-22T08:12:42.902Z,22.97
2018-02-22T08:15:17.403Z,20.13
2018-02-22T08:17:51.136Z,21.93
2018-02-22T08:20:24.716Z,19.50
2018-02-22T08:22:58.416Z,25.63
2018-02-22T08:25:32.139Z,20.87
2018-02-22T08:28:05.729Z,23.63
2018-02-22T08:30:39.354Z,24.63
2018-02-22T08:33:13.813Z,23.80
2018-02-22T08:35:48.420Z,23.70
2018-02-22T08:38:22.326Z,23.40
2018-02-22T08:40:56.092Z,24.77
2018-02-22T08:43:29.825Z,23.50
2018-02-22T08:46:04.071Z,23.67
2018-02-22T08:48:37.855Z,23.30
2018-02-22T08:51:11.382Z,22.00
2018-02-22T08:53:44.988Z,21.20
2018-02-22T08:56:18.556Z,23.90
2018-02-22T08:58:52.350Z,23.90
2018-02-22T09:01:26.071Z,21.00
2018-02-22T09:03:59.680Z,21.33
2018-02-22T09:06:34.098Z,22.67
2018-02-22T09:09:07.862Z,19.53
2018-02-22T09:11:42.434Z,20.73
2018-02-22T09:14:16.731Z,21.10
2018-02-22T09:16:50.243Z,20.43
2018-02-22T09:19:23.896Z,20.63
2018-02-22T09:21:57.698Z,22.83
2018-02-22T09:24:31.395Z,21.07
2018-02-22T09:27:05.856Z,20.70
2018-02-22T09:29:40.757Z,23.07
2018-02-22T09:32:15.347Z,21.80
2018-02-22T09:34:49.334Z,23.47
2018-02-22T09:37:23.130Z,23.83
2018-02-22T09:39:57.607Z,22.90
2018-02-22T09:42:31.627Z,22.20
2018-02-22T09:45:05.342Z,23.60
2018-02-22T09:47:39.697Z,24.50
2018-02-22T09:50:14.333Z,24.33
2018-02-22T09:52:48.092Z,22.10
2018-02-22T09:55:21.711Z,25.33
2018-02-22T09:57:55.443Z,24.80
2018-02-22T10:00:29.876Z,24.77
2018-02-22T10:03:03.916Z,32.90
2018-02-22T10:05:37.655Z,23.80
2018-02-22T10:08:11.359Z,26.27
2018-02-22T10:10:44.839Z,25.83
2018-02-22T10:13:19.289Z,25.93
2018-02-22T10:15:53.197Z,26.13
2018-02-22T10:18:26.906Z,23.87
2018-02-22T10:21:00.612Z,23.80
2018-02-22T10:23:34.289Z,27.77
2018-02-22T10:26:08.005Z,23.50
2018-02-22T10:28:41.550Z,24.20
2018-02-22T10:31:15.333Z,26.13
2018-02-22T10:33:49.885Z,25.63
2018-02-22T10:36:24.028Z,23.17
2018-02-22T10:38:58.379Z,25.33
2018-02-22T10:41:32.171Z,25.03
2018-02-22T10:44:06.693Z,24.60
2018-02-22T10:46:41.339Z,24.83
2018-02-22T10:49:15.343Z,24.27
2018-02-22T10:51:49.193Z,20.73
2018-02-22T10:54:23.663Z,23.63
2018-02-22T10:56:57.680Z,23.63
2018-02-22T10:59:31.394Z,25.03
2018-02-22T11:02:10.834Z,22.30
2018-02-22T11:04:45.533Z,20.90
2018-02-22T11:07:19.421Z,19.73
2018-02-22T11:09:53.104Z,20.77
2018-02-22T11:12:26.760Z,19.90
2018-02-22T11:15:00.383Z,16.60
2018-02-22T11:17:34.051Z,17.03
2018-02-22T11:20:08.604Z,17.97
2018-02-22T11:22:42.387Z,14.67
2018-02-22T11:25:17.030Z,12.30
2018-02-22T11:27:50.807Z,15.10
2018-02-22T11:30:24.345Z,12.43
2018-02-22T11:32:57.924Z,14.03
2018-02-22T11:35:31.478Z,12.13
2018-02-22T11:38:05.032Z,10.53
2018-02-22T11:40:38.707Z,10.70
2018-02-22T11:43:12.474Z,14.20
2018-02-22T11:45:46.142Z,12.00
2018-02-22T11:48:19.817Z,12.47
2018-02-22T11:50:53.522Z,10.20
2018-02-22T11:53:27.041Z,10.97
2018-02-22T11:56:00.676Z,10.03
2018-02-22T11:58:34.448Z,15.33
2018-02-22T12:01:08.869Z,10.40
2018-02-22T12:03:42.628Z,8.83
2018-02-22T12:06:16.361Z,10.03
2018-02-22T12:08:50.042Z,9.23
2018-02-22T12:11:24.492Z,8.70
2018-02-22T12:13:58.268Z,13.73
2018-02-22T12:16:31.944Z,12.03
2018-02-22T12:19:05.721Z,9.23
2018-02-22T12:21:39.267Z,8.67
2018-02-22T12:24:12.954Z,7.00
2018-02-22T12:26:46.630Z,9.37
2018-02-22T12:29:20.839Z,8.97
2018-02-22T12:31:54.936Z,8.73
2018-02-22T12:34:28.697Z,9.20
2018-02-22T12:37:03.172Z,9.93
2018-02-22T12:39:36.956Z,9.73
2018-02-22T12:42:10.854Z,9.67
2018-02-22T12:44:45.209Z,8.10
2018-02-22T12:47:19.104Z,9.07
2018-02-22T12:49:52.676Z,7.63
2018-02-22T12:52:27.132Z,8.13
2018-02-22T12:55:01.740Z,7.10
2018-02-22T12:57:35.742Z,7.87
2018-02-22T13:00:10.977Z,6.53
2018-02-22T13:02:44.890Z,7.57
2018-02-22T13:05:19.412Z,9.00
2018-02-22T13:07:54.075Z,7.00
2018-02-22T13:10:28.071Z,7.20
2018-02-22T13:13:01.894Z,6.20
2018-02-22T13:15:36.404Z,7.20
2018-02-22T13:18:10.532Z,5.73
2018-02-22T13:20:45.012Z,5.60
2018-02-22T13:23:18.757Z,7.80
2018-02-22T13:25:53.336Z,7.10
2018-02-22T13:28:27.860Z,6.43
2018-02-22T13:31:01.905Z,6.90
2018-02-22T13:33:47.320Z,7.50
2018-02-22T13:36:21.049Z,6.57
2018-02-22T13:39:06.258Z,7.13
2018-02-22T13:41:40.745Z,7.70
2018-02-22T13:44:26.793Z,7.07
2018-02-22T13:47:00.383Z,5.73
2018-02-22T13:49:45.720Z,6.80
2018-02-22T13:52:20.351Z,6.30
2018-02-22T13:54:54.316Z,6.73
2018-02-22T13:57:27.984Z,7.00
2018-02-22T14:00:01.547Z,9.70
2018-02-22T14:02:35.126Z,9.30
2018-02-22T14:05:09.751Z,8.53
2018-02-22T14:07:43.456Z,11.07
2018-02-22T14:10:18.109Z,14.40
2018-02-22T14:12:52.680Z,11.03
2018-02-22T14:15:26.703Z,10.83
2018-02-22T14:18:00.472Z,7.40
2018-02-22T14:20:34.073Z,8.20
2018-02-22T14:23:07.715Z,9.50
2018-02-22T14:25:41.357Z,8.87
2018-02-22T14:28:15.015Z,9.10
2018-02-22T14:30:48.746Z,7.83
2018-02-22T14:33:22.524Z,8.90
2018-02-22T14:35:56.859Z,10.53
2018-02-22T14:38:30.859Z,12.50
2018-02-22T14:41:05.344Z,8.93
2018-02-22T14:43:39.281Z,9.23
2018-02-22T14:46:12.916Z,8.63
2018-02-22T14:48:46.586Z,9.40
2018-02-22T14:51:20.200Z,11.37
2018-02-22T14:53:53.778Z,8.63
2018-02-22T14:56:27.462Z,9.07
2018-02-22T14:59:01.051Z,9.80
2018-02-22T15:01:35.624Z,9.93
2018-02-22T15:04:10.324Z,17.17
2018-02-22T15:06:44.907Z,9.97
2018-02-22T15:09:19.654Z,11.27
2018-02-22T15:11:53.579Z,12.00
2018-02-22T15:14:27.199Z,5.50
2018-02-22T15:17:00.790Z,10.50
2018-02-22T15:19:34.316Z,12.57
2018-02-22T15:22:08.661Z,8.20
2018-02-22T15:24:42.696Z,12.10
2018-02-22T15:27:16.468Z,10.50
2018-02-22T15:29:50.218Z,10.37
2018-02-22T15:32:23.930Z,8.10
2018-02-22T15:34:57.687Z,7.70
2018-02-22T15:37:31.488Z,9.60
2018-02-22T15:40:05.816Z,6.23
2018-02-22T15:42:40.539Z,7.93
2018-02-22T15:45:14.575Z,7.07
2018-02-22T15:47:48.319Z,7.00
2018-02-22T15:50:22.762Z,6.30
2018-02-22T15:52:57.434Z,7.33
2018-02-22T15:55:31.357Z,10.30
2018-02-22T15:58:04.984Z,8.83
2018-02-22T16:00:38.790Z,7.83
2018-02-22T16:03:13.235Z,9.60
2018-02-22T16:05:47.871Z,9.47
2018-02-22T16:08:22.310Z,7.97
2018-02-22T16:10:56.184Z,10.60
2018-02-22T16:13:30.615Z,7.40
2018-02-22T16:16:05.171Z,7.10
2018-02-22T16:18:40.609Z,8.50
2018-02-22T16:21:15.347Z,11.00
2018-02-22T16:23:49.851Z,12.83
2018-02-22T16:26:23.726Z,14.40
2018-02-22T16:28:57.256Z,10.30
2018-02-22T16:31:31.580Z,11.00
2018-02-22T16:34:06.132Z,9.50
2018-02-22T16:36:40.120Z,9.97
2018-02-22T16:39:13.902Z,10.50
2018-02-22T16:41:48.332Z,15.60
2018-02-22T16:44:22.205Z,11.53
2018-02-22T16:46:55.776Z,10.50
2018-02-22T16:49:29.659Z,7.50
2018-02-22T16:52:03.451Z,9.23
2018-02-22T16:54:37.054Z,9.93
2018-02-22T16:57:10.841Z,10.20
2018-02-22T16:59:44.947Z,10.13
2018-02-22T17:02:19.049Z,11.77
2018-02-22T17:04:52.826Z,9.70
2018-02-22T17:07:26.562Z,10.70
2018-02-22T17:10:00.128Z,11.57
2018-02-22T17:12:33.680Z,10.37
2018-02-22T17:15:07.543Z,13.23
2018-02-22T17:17:45.142Z,11.40
2018-02-22T17:20:18.855Z,12.20
2018-02-22T17:22:52.504Z,11.70
2018-02-22T17:25:26.694Z,12.70
2018-02-22T17:28:06.511Z,12.37
2018-02-22T17:30:46.087Z,14.00
2018-02-22T17:33:20.249Z,13.57
2018-02-22T17:36:03.755Z,12.70
2018-02-22T17:41:44.251Z,14.80
2018-02-22T17:44:18.103Z,12.97
2018-02-22T17:46:51.706Z,14.10
2018-02-22T17:49:26.168Z,10.97
2018-02-22T17:52:00.093Z,13.97
2018-02-22T17:54:34.671Z,16.57
2018-02-22T17:57:08.509Z,12.80
2018-02-22T17:59:42.325Z,12.37
2018-02-22T18:02:15.899Z,12.13
2018-02-22T18:04:50.410Z,11.87
2018-02-22T18:07:24.344Z,11.87
2018-02-22T18:09:58.717Z,13.73
2018-02-22T18:12:32.682Z,13.20
2018-02-22T18:15:06.395Z,14.90
2018-02-22T18:17:40.198Z,15.13
2018-02-22T18:20:14.759Z,15.67
2018-02-22T18:22:49.482Z,17.43
2018-02-22T18:25:23.191Z,15.13
2018-02-22T18:27:57.039Z,14.70
2018-02-22T18:30:30.812Z,15.13
2018-02-22T18:33:05.259Z,16.70
2018-02-22T18:35:39.013Z,15.33
2018-02-22T18:38:12.611Z,19.03
2018-02-22T18:40:52.827Z,18.50
2018-02-22T18:43:33.496Z,19.53
2018-02-22T18:46:08.483Z,24.77
2018-02-22T18:48:42.331Z,19.50
2018-02-22T18:51:16.066Z,20.40
2018-02-22T18:53:49.574Z,19.07
2018-02-22T18:56:23.987Z,21.73
2018-02-22T18:58:57.945Z,22.43
2018-02-22T19:01:31.679Z,21.63
2018-02-22T19:04:05.343Z,18.30
2018-02-22T19:06:39.165Z,22.50
2018-02-22T19:09:12.838Z,18.63
2018-02-22T19:11:47.292Z,22.50
2018-02-22T19:14:21.305Z,19.47
2018-02-22T19:16:54.969Z,19.37
2018-02-22T19:19:28.529Z,18.70
2018-02-22T19:22:02.198Z,20.30
2018-02-22T19:24:36.656Z,17.63
2018-02-22T19:27:11.242Z,17.53
2018-02-22T19:29:45.490Z,19.40
2018-02-22T19:32:19.059Z,20.00
2018-02-22T19:34:53.914Z,16.57
2018-02-22T19:37:29.180Z,17.63
2018-02-22T19:40:03.580Z,17.50
2018-02-22T19:42:37.598Z,17.40
2018-02-22T19:45:11.710Z,19.60
2018-02-22T19:47:45.550Z,18.80
2018-02-22T19:50:19.562Z,17.30
2018-02-22T19:52:53.602Z,18.70
2018-02-22T19:55:28.241Z,20.90
2018-02-22T19:58:02.927Z,19.83
2018-02-22T20:00:37.225Z,19.37
2018-02-22T20:03:11.774Z,18.00
2018-02-22T20:05:45.796Z,18.80
2018-02-22T20:08:19.295Z,20.83
2018-02-22T20:10:53.118Z,21.87
2018-02-22T20:13:26.820Z,22.20
2018-02-22T20:16:01.347Z,23.20
2018-02-22T20:18:35.023Z,23.67
2018-02-22T20:21:08.643Z,23.37
2018-02-22T20:23:42.705Z,25.07
2018-02-22T20:26:17.765Z,23.67
2018-02-22T20:28:52.425Z,25.37
2018-02-22T20:31:27.127Z,24.80
2018-02-22T20:34:01.083Z,27.40
2018-02-22T20:36:35.859Z,26.20
2018-02-22T20:39:09.576Z,24.47
2018-02-22T20:41:43.395Z,26.23
2018-02-22T20:44:17.199Z,22.57
2018-02-22T20:46:50.967Z,23.87
2018-02-22T20:49:24.567Z,23.07
2018-02-22T20:51:58.566Z,24.00
2018-02-22T20:54:32.603Z,24.90
2018-02-22T20:57:06.715Z,25.07
2018-02-22T20:59:40.629Z,29.10
2018-02-22T21:02:15.460Z,23.57
2018-02-22T21:04:49.438Z,26.03
2018-02-22T21:07:23.578Z,25.37
2018-02-22T21:09:58.403Z,24.23
2018-02-22T21:12:33.424Z,26.53
2018-02-22T21:15:07.523Z,25.30
2018-02-22T21:20:22.338Z,23.83
2018-02-22T21:22:56.025Z,23.33
2018-02-22T21:25:29.668Z,25.70
2018-02-22T21:28:04.176Z,24.27
2018-02-22T21:30:37.908Z,24.70
2018-02-22T21:33:11.684Z,23.10
2018-02-22T21:35:45.348Z,22.90
2018-02-22T21:38:19.802Z,24.50
2018-02-22T21:40:53.676Z,24.80
2018-02-22T21:43:27.592Z,24.43
2018-02-22T21:46:02.155Z,26.00
2018-02-22T21:48:35.924Z,24.80
2018-02-22T21:51:09.583Z,26.50
2018-02-22T21:53:44.287Z,25.67
2018-02-22T21:56:18.053Z,24.60
2018-02-22T21:58:51.686Z,24.70
2018-02-22T22:01:25.365Z,24.00
2018-02-22T22:03:59.001Z,25.00
2018-02-22T22:06:32.751Z,24.37
2018-02-22T22:09:07.098Z,23.67
2018-02-22T22:11:41.099Z,24.50
2018-02-22T22:14:14.840Z,24.10
2018-02-22T22:16:48.781Z,26.50
2018-02-22T22:19:22.513Z,26.13
2018-02-22T22:21:56.159Z,25.67
2018-02-22T22:24:29.928Z,24.60
2018-02-22T22:27:03.720Z,27.80
2018-02-22T22:29:37.614Z,29.83
2018-02-22T22:32:11.438Z,25.63
2018-02-22T22:34:45.905Z,25.97
2018-02-22T22:37:19.974Z,30.80
2018-02-22T22:39:54.512Z,28.33
2018-02-22T22:42:28.404Z,27.87
2018-02-22T22:45:02.832Z,26.60
2018-02-22T22:47:37.294Z,26.70
2018-02-22T22:50:11.127Z,26.70
2018-02-22T22:52:45.683Z,26.67
2018-02-22T22:55:19.547Z,26.57
2018-02-22T22:57:53.387Z,26.50
2018-02-22T23:00:27.348Z,24.43
2018-02-22T23:03:01.027Z,25.80
2018-02-22T23:05:34.827Z,28.03
2018-02-22T23:08:08.547Z,26.23
2018-02-22T23:10:43.360Z,26.23
2018-02-22T23:13:17.373Z,26.83
2018-02-22T23:15:51.236Z,25.77
2018-02-22T23:18:25.217Z,28.00
2018-02-22T23:20:59.703Z,29.23
2018-02-22T23:23:33.923Z,28.00
2018-02-22T23:26:07.734Z,29.43
2018-02-22T23:28:42.327Z,26.87
2018-02-22T23:31:16.140Z,26.07
2018-02-22T23:33:49.928Z,28.97
2018-02-22T23:36:23.759Z,25.47
2018-02-22T23:38:58.305Z,27.40
2018-02-22T23:41:35.369Z,29.40
2018-02-22T23:44:09.279Z,25.93
2018-02-22T23:46:43.072Z,32.00
2018-02-22T23:49:16.903Z,29.23
2018-02-22T23:51:51.201Z,29.60
2018-02-22T23:54:25.202Z,31.43
2018-02-22T23:56:59.036Z,28.13
2018-02-22T23:59:32.617Z,29.60
